createdAt,value
2022-09-16T00:04:54.483Z,97889.28
2022-09-16T00:09:57.203Z,97892.09
2022-09-16T00:14:59.926Z,97883.22
2022-09-16T00:20:04.555Z,97890.56
2022-09-16T00:25:08.438Z,97890.06
2022-09-16T00:30:11.975Z,97884.84
2022-09-16T00:35:16.143Z,97890.06
2022-09-16T00:40:19.081Z,97887.22
2022-09-16T00:45:24.171Z,97879.69
2022-09-16T00:50:38.040Z,97879.34
2022-09-16T00:55:41.086Z,97871.31
2022-09-16T01:00:43.902Z,97872.44
2022-09-16T01:05:48.685Z,97875.44
2022-09-16T01:10:51.513Z,97871.09
2022-09-16T01:16:02.014Z,97873.25
2022-09-16T01:21:17.536Z,97866.38
2022-09-16T01:26:46.847Z,97867.53
2022-09-16T01:32:01.547Z,97866.03
2022-09-16T01:37:09.614Z,97870.00
2022-09-16T01:42:23.210Z,97867.19
2022-09-16T01:47:37.389Z,97877.19
2022-09-16T01:52:47.335Z,97875.34
2022-09-16T01:57:57.128Z,97870.00
2022-09-16T02:03:06.199Z,97870.00
2022-09-16T02:08:12.807Z,97866.31
2022-09-16T02:13:21.378Z,97865.16
2022-09-16T02:18:30.718Z,97860.72
2022-09-16T02:23:39.588Z,97863.91
2022-09-16T02:28:45.440Z,97862.22
2022-09-16T02:33:54.607Z,97867.03
2022-09-16T02:39:01.569Z,97865.16
2022-09-16T02:44:05.594Z,97871.34
2022-09-16T02:49:17.254Z,97868.28
2022-09-16T02:54:26.423Z,97863.25
2022-09-16T02:59:29.441Z,97860.22
2022-09-16T03:04:35.875Z,97859.56
2022-09-16T03:09:43.532Z,97858.00
2022-09-16T03:15:13.807Z,97851.94
2022-09-16T03:20:25.856Z,97847.41
2022-09-16T03:25:41.530Z,97843.56
2022-09-16T03:30:54.358Z,97840.03
2022-09-16T03:36:01.775Z,97847.00
2022-09-16T03:41:05.662Z,97842.97
2022-09-16T03:46:12.401Z,97842.59
2022-09-16T03:51:17.316Z,97849.69
2022-09-16T03:56:20.869Z,97837.28
2022-09-16T04:01:23.813Z,97843.16
2022-09-16T04:06:28.010Z,97841.78
2022-09-16T04:11:32.140Z,97838.06
2022-09-16T04:16:35.416Z,97842.72
2022-09-16T04:21:39.619Z,97837.00
2022-09-16T04:26:42.738Z,97836.31
2022-09-16T04:31:45.798Z,97824.97
2022-09-16T04:36:49.880Z,97825.94
2022-09-16T04:41:52.719Z,97838.13
2022-09-16T04:46:55.729Z,97835.84
2022-09-16T04:51:59.848Z,97833.41
2022-09-16T04:57:02.921Z,97836.63
2022-09-16T05:02:05.851Z,97827.16
2022-09-16T05:07:09.937Z,97834.88
2022-09-16T05:12:12.643Z,97828.13
2022-09-16T05:17:33.086Z,97828.44
2022-09-16T05:22:39.575Z,97830.75
2022-09-16T05:27:42.393Z,97836.09
2022-09-16T05:32:45.133Z,97839.44
2022-09-16T05:37:50.603Z,97832.41
2022-09-16T05:42:53.281Z,97837.75
2022-09-16T05:47:56.077Z,97836.59
2022-09-16T05:53:00.118Z,97835.72
2022-09-16T05:58:02.891Z,97829.97
2022-09-16T06:03:05.703Z,97829.50
2022-09-16T06:08:09.747Z,97831.66
2022-09-16T06:13:14.865Z,97829.19
2022-09-16T06:18:18.729Z,97831.56
2022-09-16T06:23:23.405Z,97836.41
2022-09-16T06:28:26.125Z,97835.94
2022-09-16T06:33:29.211Z,97838.56
2022-09-16T06:38:33.377Z,97843.31
2022-09-16T06:43:37.101Z,97841.78
2022-09-16T06:48:41.131Z,97835.47
2022-09-16T06:53:46.609Z,97850.06
2022-09-16T06:58:52.995Z,97844.63
2022-09-16T07:03:57.378Z,97842.03
2022-09-16T07:09:01.491Z,97838.03
2022-09-16T07:14:04.967Z,97848.31
2022-09-16T07:19:07.803Z,97838.78
2022-09-16T07:24:13.876Z,97844.31
2022-09-16T07:29:20.467Z,97846.16
2022-09-16T07:34:23.517Z,97843.28
2022-09-16T07:39:28.506Z,97840.25
2022-09-16T07:44:31.363Z,97844.47
2022-09-16T07:49:34.333Z,97854.34
2022-09-16T07:54:38.416Z,97854.44
2022-09-16T07:59:41.218Z,97852.00
2022-09-16T08:04:43.993Z,97858.97
2022-09-16T08:09:50.715Z,97861.41
2022-09-16T08:14:56.032Z,97847.91
2022-09-16T08:19:59.971Z,97864.38
2022-09-16T08:25:04.862Z,97878.75
2022-09-16T08:30:10.846Z,97876.06
2022-09-16T08:35:14.376Z,97872.59
2022-09-16T08:45:56.454Z,97881.16
2022-09-16T08:51:01.869Z,97885.84
2022-09-16T08:56:08.647Z,97886.50
2022-09-16T09:01:18.706Z,97887.84
2022-09-16T09:06:40.019Z,97894.22
2022-09-16T09:11:51.305Z,97895.06
2022-09-16T09:17:00.121Z,97891.41
2022-09-16T09:22:14.705Z,97890.91
2022-09-16T09:27:27.225Z,97887.59
2022-09-16T09:32:49.442Z,97887.41
2022-09-16T09:38:08.765Z,97884.34
2022-09-16T09:43:17.608Z,97889.00
2022-09-16T09:48:24.075Z,97881.09
2022-09-16T09:53:31.003Z,97874.66
2022-09-16T09:58:41.524Z,97883.66
2022-09-16T10:03:45.282Z,97880.84
2022-09-16T10:08:51.593Z,97876.13
2022-09-16T10:13:58.075Z,97875.66
2022-09-16T10:19:03.971Z,97871.25
2022-09-16T10:24:06.972Z,97885.78
2022-09-16T10:29:19.445Z,97899.06
2022-09-16T10:34:28.961Z,97897.84
2022-09-16T10:39:33.416Z,97891.28
2022-09-16T10:44:39.615Z,97889.94
2022-09-16T10:49:47.707Z,97882.75
2022-09-16T10:54:51.160Z,97886.13
2022-09-16T11:00:00.604Z,97877.75
2022-09-16T11:05:11.033Z,97873.16
2022-09-16T11:10:24.158Z,97875.00
2022-09-16T11:15:42.346Z,97873.84
2022-09-16T11:21:17.621Z,97864.19
2022-09-16T11:26:28.807Z,97867.97
2022-09-16T11:31:41.628Z,97848.41
2022-09-16T11:37:16.362Z,97860.91
2022-09-16T11:42:31.496Z,97870.16
2022-09-16T11:47:43.031Z,97860.69
2022-09-16T11:53:10.150Z,97857.00
2022-09-16T11:58:25.534Z,97852.59
2022-09-16T12:03:35.593Z,97848.19
2022-09-16T12:08:51.663Z,97843.69
2022-09-16T12:14:07.394Z,97837.81
2022-09-16T12:19:19.256Z,97833.75
2022-09-16T12:24:28.504Z,97827.94
2022-09-16T12:29:39.991Z,97824.47
2022-09-16T12:34:49.231Z,97819.50
2022-09-16T12:39:53.589Z,97821.03
2022-09-16T12:45:23.524Z,97811.69
2022-09-16T12:50:48.525Z,97814.75
2022-09-16T12:56:01.933Z,97817.53
2022-09-16T13:01:19.974Z,97825.03
2022-09-16T13:06:28.693Z,97815.91
2022-09-16T13:12:31.395Z,97809.84
2022-09-16T13:16:57.929Z,97814.44
2022-09-16T13:22:21.734Z,97814.66
2022-09-16T13:27:59.490Z,97822.97
2022-09-16T13:33:22.990Z,97813.75
2022-09-16T13:38:39.651Z,97809.97
2022-09-16T13:43:54.121Z,97810.75
2022-09-16T13:49:05.077Z,97834.78
2022-09-16T13:54:30.241Z,97839.94
2022-09-16T13:59:43.456Z,97879.13
2022-09-16T14:05:17.181Z,97896.69
2022-09-16T14:10:29.750Z,97906.00
2022-09-16T14:15:37.601Z,97909.03
2022-09-16T14:20:41.729Z,97904.59
2022-09-16T14:25:45.877Z,97905.09
2022-09-16T14:30:51.567Z,97895.91
2022-09-16T14:35:56.708Z,97888.75
2022-09-16T14:41:01.392Z,97890.56
2022-09-16T14:46:04.745Z,97890.00
2022-09-16T14:51:15.001Z,97883.47
2022-09-16T14:56:20.320Z,97876.22
2022-09-16T15:01:27.871Z,97869.38
2022-09-16T15:06:34.538Z,97869.31
2022-09-16T15:11:49.081Z,97874.94
2022-09-16T15:16:56.262Z,97873.44
2022-09-16T15:21:59.225Z,97878.84
2022-09-16T15:27:04.216Z,97876.84
2022-09-16T15:32:19.354Z,97898.75
2022-09-16T15:37:33.026Z,97881.19
2022-09-16T15:42:38.203Z,97879.19
2022-09-16T15:48:01.788Z,97877.53
2022-09-16T15:53:08.779Z,97868.19
2022-09-16T15:58:18.455Z,97863.81
2022-09-16T16:03:21.982Z,97866.91
2022-09-16T16:08:41.403Z,97880.94
2022-09-16T16:13:46.033Z,97877.56
2022-09-16T16:18:48.975Z,97875.78
2022-09-16T16:23:51.760Z,97882.72
2022-09-16T16:28:55.805Z,97879.16
2022-09-16T16:33:58.530Z,97889.53
2022-09-16T16:39:01.287Z,97888.03
2022-09-16T16:44:05.443Z,97887.25
2022-09-16T16:49:08.393Z,97884.44
2022-09-16T16:54:12.759Z,97885.13
2022-09-16T16:59:17.199Z,97876.69
2022-09-16T17:04:20.353Z,97875.13
2022-09-16T17:09:23.129Z,97889.47
2022-09-16T17:14:28.746Z,97890.63
2022-09-16T17:19:32.283Z,97886.66
2022-09-16T17:24:35.453Z,97887.13
2022-09-16T17:29:40.053Z,97885.47
2022-09-16T17:34:42.828Z,97893.88
2022-09-16T17:39:45.867Z,97886.38
2022-09-16T17:44:49.987Z,97892.91
2022-09-16T17:49:52.967Z,97899.44
2022-09-16T17:54:55.831Z,97896.31
2022-09-16T17:59:59.914Z,97896.97
2022-09-16T18:05:03.493Z,97897.81
2022-09-16T18:10:07.259Z,97895.91
2022-09-16T18:15:12.003Z,97898.63
2022-09-16T18:20:14.757Z,97912.69
2022-09-16T18:25:17.594Z,97926.91
2022-09-16T18:30:21.959Z,97930.16
2022-09-16T18:35:24.660Z,97938.84
2022-09-16T18:40:29.188Z,97938.75
2022-09-16T18:45:34.259Z,97942.13
2022-09-16T18:50:38.081Z,97952.38
2022-09-16T18:55:40.795Z,97961.75
2022-09-16T19:00:47.212Z,97952.94
2022-09-16T19:05:56.763Z,97951.78
2022-09-16T19:11:03.703Z,97958.50
2022-09-16T19:16:08.216Z,97958.97
2022-09-16T19:21:16.797Z,97962.03
2022-09-16T19:26:19.948Z,97962.59
2022-09-16T19:31:24.103Z,97965.66
2022-09-16T19:36:29.112Z,97965.94
2022-09-16T19:41:35.008Z,97967.06
2022-09-16T19:46:42.505Z,97963.56
2022-09-16T19:51:45.355Z,97958.38
2022-09-16T19:56:50.651Z,97961.47
2022-09-16T20:01:55.218Z,97969.72
2022-09-16T20:06:58.169Z,97963.81
2022-09-16T20:12:01.191Z,97965.91
2022-09-16T20:17:05.905Z,97965.50
2022-09-16T20:22:08.622Z,97967.72
2022-09-16T20:27:11.401Z,97967.03
2022-09-16T20:32:15.467Z,97968.16
2022-09-16T20:37:18.201Z,97957.91
2022-09-16T20:42:21.351Z,97964.34
2022-09-16T20:47:27.409Z,97964.59
2022-09-16T20:52:30.195Z,97966.56
2022-09-16T20:57:33.948Z,97980.28
2022-09-16T21:02:38.332Z,97981.41
2022-09-16T21:07:41.208Z,97987.97
2022-09-16T21:12:43.977Z,97994.25
2022-09-16T21:17:48.097Z,97994.53
2022-09-16T21:22:51.735Z,98007.13
2022-09-16T21:27:54.906Z,98009.09
2022-09-16T21:32:59.291Z,98001.38
2022-09-16T21:38:02.014Z,98003.75
2022-09-16T21:43:07.057Z,98000.25
2022-09-16T21:48:11.257Z,98001.38
2022-09-16T21:53:14.087Z,98006.81
2022-09-16T21:58:16.753Z,98004.28
2022-09-16T22:03:21.044Z,98016.47
2022-09-16T22:08:23.745Z,98017.19
2022-09-16T22:13:26.450Z,98030.22
2022-09-16T22:18:32.960Z,98030.09
2022-09-16T22:23:37.157Z,98028.25
2022-09-16T22:28:41.237Z,98029.81
2022-09-16T22:33:47.147Z,98032.59
2022-09-16T22:38:51.611Z,98031.91
2022-09-16T22:43:57.900Z,98025.59
2022-09-16T22:49:02.579Z,98016.91
2022-09-16T22:54:06.713Z,98014.09
2022-09-16T22:59:16.853Z,98018.44
2022-09-16T23:04:21.081Z,98015.75
2022-09-16T23:09:24.259Z,98019.41
2022-09-16T23:14:27.074Z,98012.41
2022-09-16T23:19:31.196Z,98022.19
2022-09-16T23:24:33.975Z,98013.09
2022-09-16T23:29:36.679Z,98018.28
2022-09-16T23:34:40.715Z,98008.50
2022-09-16T23:39:44.004Z,98009.09
2022-09-16T23:44:47.044Z,98009.19
2022-09-16T23:49:52.578Z,98010.88
2022-09-16T23:54:55.261Z,98009.78
2022-09-16T23:59:57.953Z,97999.97
